sensor_id;sensor_type;location;lat;lon;timestamp;P1;durP1;ratioP1;P2;durP2;ratioP2
21611;SDS011;47005;52.292;13.452;2024-01-30T00:01:15;10.20;;;6.03;;
21611;SDS011;47005;52.292;13.452;2024-01-30T00:03:41;13.17;;;5.77;;
21611;SDS011;47005;52.292;13.452;2024-01-30T00:06:07;10.13;;;4.73;;
21611;SDS011;47005;52.292;13.452;2024-01-30T00:08:33;8.27;;;5.63;;
21611;SDS011;47005;52.292;13.452;2024-01-30T00:10:59;9.30;;;5.17;;
21611;SDS011;47005;52.292;13.452;2024-01-30T00:13:24;13.17;;;6.50;;
21611;SDS011;47005;52.292;13.452;2024-01-30T00:15:50;11.57;;;7.07;;
21611;SDS011;47005;52.292;13.452;2024-01-30T00:18:16;10.07;;;6.33;;
21611;SDS011;47005;52.292;13.452;2024-01-30T00:20:41;14.97;;;6.00;;
21611;SDS011;47005;52.292;13.452;2024-01-30T00:23:08;8.10;;;5.00;;
21611;SDS011;47005;52.292;13.452;2024-01-30T00:25:33;9.47;;;5.10;;
21611;SDS011;47005;52.292;13.452;2024-01-30T00:27:59;10.30;;;5.73;;
21611;SDS011;47005;52.292;13.452;2024-01-30T00:30:25;9.00;;;5.33;;
21611;SDS011;47005;52.292;13.452;2024-01-30T00:32:51;9.47;;;6.23;;
21611;SDS011;47005;52.292;13.452;2024-01-30T00:35:16;10.00;;;5.63;;
21611;SDS011;47005;52.292;13.452;2024-01-30T00:37:42;9.37;;;6.07;;
21611;SDS011;47005;52.292;13.452;2024-01-30T00:40:08;8.67;;;5.10;;
21611;SDS011;47005;52.292;13.452;2024-01-30T00:42:40;11.43;;;5.43;;
21611;SDS011;47005;52.292;13.452;2024-01-30T00:45:11;10.03;;;5.80;;
21611;SDS011;47005;52.292;13.452;2024-01-30T00:47:40;8.13;;;4.93;;
21611;SDS011;47005;52.292;13.452;2024-01-30T00:50:06;12.83;;;5.87;;
21611;SDS011;47005;52.292;13.452;2024-01-30T00:52:31;8.80;;;4.93;;
21611;SDS011;47005;52.292;13.452;2024-01-30T00:54:58;9.77;;;5.10;;
21611;SDS011;47005;52.292;13.452;2024-01-30T00:57:24;10.97;;;6.43;;
21611;SDS011;47005;52.292;13.452;2024-01-30T00:59:49;9.97;;;5.37;;
21611;SDS011;47005;52.292;13.452;2024-01-30T01:02:15;10.43;;;5.00;;
21611;SDS011;47005;52.292;13.452;2024-01-30T01:04:42;8.03;;;4.50;;
21611;SDS011;47005;52.292;13.452;2024-01-30T01:07:09;11.23;;;5.53;;
21611;SDS011;47005;52.292;13.452;2024-01-30T01:09:35;8.13;;;5.10;;
21611;SDS011;47005;52.292;13.452;2024-01-30T01:12:01;9.70;;;5.03;;
21611;SDS011;47005;52.292;13.452;2024-01-30T01:14:27;8.80;;;4.90;;
21611;SDS011;47005;52.292;13.452;2024-01-30T01:16:53;8.60;;;4.93;;
21611;SDS011;47005;52.292;13.452;2024-01-30T01:19:18;12.03;;;6.40;;
21611;SDS011;47005;52.292;13.452;2024-01-30T01:21:44;10.63;;;5.33;;
21611;SDS011;47005;52.292;13.452;2024-01-30T01:24:10;11.50;;;5.80;;
21611;SDS011;47005;52.292;13.452;2024-01-30T01:26:35;8.20;;;5.00;;
21611;SDS011;47005;52.292;13.452;2024-01-30T01:29:01;8.27;;;5.57;;
21611;SDS011;47005;52.292;13.452;2024-01-30T01:31:29;9.67;;;5.67;;
21611;SDS011;47005;52.292;13.452;2024-01-30T01:33:55;8.30;;;4.40;;
21611;SDS011;47005;52.292;13.452;2024-01-30T01:36:20;17.13;;;5.17;;
21611;SDS011;47005;52.292;13.452;2024-01-30T01:38:46;11.50;;;5.33;;
21611;SDS011;47005;52.292;13.452;2024-01-30T01:41:12;10.40;;;5.57;;
21611;SDS011;47005;52.292;13.452;2024-01-30T01:43:37;9.90;;;6.07;;
21611;SDS011;47005;52.292;13.452;2024-01-30T01:46:04;13.37;;;5.37;;
21611;SDS011;47005;52.292;13.452;2024-01-30T01:48:31;11.90;;;6.67;;
21611;SDS011;47005;52.292;13.452;2024-01-30T01:50:57;12.77;;;7.00;;
21611;SDS011;47005;52.292;13.452;2024-01-30T01:53:24;12.43;;;7.37;;
21611;SDS011;47005;52.292;13.452;2024-01-30T01:55:50;13.90;;;8.20;;
21611;SDS011;47005;52.292;13.452;2024-01-30T01:58:17;13.90;;;6.40;;
21611;SDS011;47005;52.292;13.452;2024-01-30T02:00:45;14.67;;;7.30;;
21611;SDS011;47005;52.292;13.452;2024-01-30T02:03:11;14.20;;;6.83;;
21611;SDS011;47005;52.292;13.452;2024-01-30T02:05:40;13.97;;;5.93;;
21611;SDS011;47005;52.292;13.452;2024-01-30T02:08:07;9.13;;;6.30;;
21611;SDS011;47005;52.292;13.452;2024-01-30T02:10:36;12.23;;;5.60;;
21611;SDS011;47005;52.292;13.452;2024-01-30T02:13:02;12.43;;;6.27;;
21611;SDS011;47005;52.292;13.452;2024-01-30T02:15:28;11.63;;;6.20;;
21611;SDS011;47005;52.292;13.452;2024-01-30T02:17:54;8.10;;;5.50;;
21611;SDS011;47005;52.292;13.452;2024-01-30T02:20:20;8.90;;;5.23;;
21611;SDS011;47005;52.292;13.452;2024-01-30T02:22:47;11.23;;;5.70;;
21611;SDS011;47005;52.292;13.452;2024-01-30T02:25:14;8.13;;;5.40;;
21611;SDS011;47005;52.292;13.452;2024-01-30T02:27:39;12.23;;;5.33;;
21611;SDS011;47005;52.292;13.452;2024-01-30T02:30:05;15.70;;;6.40;;
21611;SDS011;47005;52.292;13.452;2024-01-30T02:32:31;7.63;;;4.80;;
21611;SDS011;47005;52.292;13.452;2024-01-30T02:34:56;11.00;;;6.47;;
21611;SDS011;47005;52.292;13.452;2024-01-30T02:37:22;11.10;;;5.63;;
21611;SDS011;47005;52.292;13.452;2024-01-30T02:39:48;12.10;;;5.67;;
21611;SDS011;47005;52.292;13.452;2024-01-30T02:42:13;7.10;;;4.60;;
21611;SDS011;47005;52.292;13.452;2024-01-30T02:44:39;9.30;;;5.10;;
21611;SDS011;47005;52.292;13.452;2024-01-30T02:47:04;14.30;;;6.53;;
21611;SDS011;47005;52.292;13.452;2024-01-30T02:49:30;10.60;;;6.00;;
21611;SDS011;47005;52.292;13.452;2024-01-30T02:51:56;8.97;;;4.47;;
21611;SDS011;47005;52.292;13.452;2024-01-30T02:54:21;10.63;;;5.37;;
21611;SDS011;47005;52.292;13.452;2024-01-30T02:56:47;11.90;;;6.17;;
21611;SDS011;47005;52.292;13.452;2024-01-30T02:59:13;12.03;;;5.57;;
21611;SDS011;47005;52.292;13.452;2024-01-30T03:01:42;8.57;;;5.37;;
21611;SDS011;47005;52.292;13.452;2024-01-30T03:04:11;10.43;;;5.80;;
21611;SDS011;47005;52.292;13.452;2024-01-30T03:06:37;11.40;;;6.10;;
21611;SDS011;47005;52.292;13.452;2024-01-30T03:09:02;10.13;;;5.77;;
21611;SDS011;47005;52.292;13.452;2024-01-30T03:11:29;10.77;;;5.87;;
21611;SDS011;47005;52.292;13.452;2024-01-30T03:13:55;12.47;;;5.37;;
21611;SDS011;47005;52.292;13.452;2024-01-30T03:16:21;14.17;;;6.30;;
21611;SDS011;47005;52.292;13.452;2024-01-30T03:18:47;10.83;;;5.83;;
21611;SDS011;47005;52.292;13.452;2024-01-30T03:21:13;10.87;;;6.40;;
21611;SDS011;47005;52.292;13.452;2024-01-30T03:23:39;10.20;;;5.53;;
21611;SDS011;47005;52.292;13.452;2024-01-30T03:26:05;13.23;;;5.13;;
21611;SDS011;47005;52.292;13.452;2024-01-30T03:28:31;13.90;;;5.17;;
21611;SDS011;47005;52.292;13.452;2024-01-30T03:30:57;9.70;;;6.10;;
21611;SDS011;47005;52.292;13.452;2024-01-30T03:33:22;9.37;;;5.33;;
21611;SDS011;47005;52.292;13.452;2024-01-30T03:35:48;10.87;;;5.67;;
21611;SDS011;47005;52.292;13.452;2024-01-30T03:38:14;7.97;;;4.63;;
21611;SDS011;47005;52.292;13.452;2024-01-30T03:40:39;9.90;;;5.93;;
21611;SDS011;47005;52.292;13.452;2024-01-30T03:43:05;8.47;;;5.40;;
21611;SDS011;47005;52.292;13.452;2024-01-30T03:45:30;10.03;;;4.87;;
21611;SDS011;47005;52.292;13.452;2024-01-30T03:47:56;11.77;;;5.53;;
21611;SDS011;47005;52.292;13.452;2024-01-30T03:50:22;17.40;;;6.00;;
21611;SDS011;47005;52.292;13.452;2024-01-30T03:52:47;12.87;;;5.67;;
21611;SDS011;47005;52.292;13.452;2024-01-30T03:55:13;9.63;;;5.07;;
21611;SDS011;47005;52.292;13.452;2024-01-30T03:57:39;8.73;;;5.57;;
21611;SDS011;47005;52.292;13.452;2024-01-30T04:00:05;10.17;;;5.37;;
21611;SDS011;47005;52.292;13.452;2024-01-30T04:02:31;9.03;;;5.23;;
21611;SDS011;47005;52.292;13.452;2024-01-30T04:04:56;10.23;;;5.57;;
21611;SDS011;47005;52.292;13.452;2024-01-30T04:07:22;8.67;;;5.30;;
21611;SDS011;47005;52.292;13.452;2024-01-30T04:09:47;8.77;;;4.83;;
21611;SDS011;47005;52.292;13.452;2024-01-30T04:12:13;8.93;;;4.37;;
21611;SDS011;47005;52.292;13.452;2024-01-30T04:14:39;9.20;;;5.13;;
21611;SDS011;47005;52.292;13.452;2024-01-30T04:17:04;8.60;;;5.60;;
21611;SDS011;47005;52.292;13.452;2024-01-30T04:19:30;8.73;;;4.37;;
21611;SDS011;47005;52.292;13.452;2024-01-30T04:21:56;10.30;;;4.83;;
21611;SDS011;47005;52.292;13.452;2024-01-30T04:24:21;11.00;;;6.07;;
21611;SDS011;47005;52.292;13.452;2024-01-30T04:26:47;15.33;;;5.50;;
21611;SDS011;47005;52.292;13.452;2024-01-30T04:29:12;10.17;;;4.97;;
21611;SDS011;47005;52.292;13.452;2024-01-30T04:31:38;8.43;;;5.33;;
21611;SDS011;47005;52.292;13.452;2024-01-30T04:34:04;9.07;;;5.30;;
21611;SDS011;47005;52.292;13.452;2024-01-30T04:36:29;8.40;;;4.80;;
21611;SDS011;47005;52.292;13.452;2024-01-30T04:38:55;7.67;;;4.77;;
21611;SDS011;47005;52.292;13.452;2024-01-30T04:41:20;7.33;;;4.40;;
21611;SDS011;47005;52.292;13.452;2024-01-30T04:43:46;11.40;;;5.67;;
21611;SDS011;47005;52.292;13.452;2024-01-30T04:46:11;8.90;;;4.83;;
21611;SDS011;47005;52.292;13.452;2024-01-30T04:48:37;8.90;;;4.97;;
21611;SDS011;47005;52.292;13.452;2024-01-30T04:51:03;9.70;;;5.43;;
21611;SDS011;47005;52.292;13.452;2024-01-30T04:53:30;9.40;;;6.10;;
21611;SDS011;47005;52.292;13.452;2024-01-30T04:55:56;8.50;;;4.67;;
21611;SDS011;47005;52.292;13.452;2024-01-30T04:58:21;10.73;;;5.53;;
21611;SDS011;47005;52.292;13.452;2024-01-30T05:00:47;10.60;;;5.43;;
21611;SDS011;47005;52.292;13.452;2024-01-30T05:03:16;12.67;;;4.93;;
21611;SDS011;47005;52.292;13.452;2024-01-30T05:05:42;13.30;;;5.40;;
21611;SDS011;47005;52.292;13.452;2024-01-30T05:08:08;12.80;;;5.73;;
21611;SDS011;47005;52.292;13.452;2024-01-30T05:10:34;10.03;;;6.53;;
21611;SDS011;47005;52.292;13.452;2024-01-30T05:12:59;9.50;;;5.60;;
21611;SDS011;47005;52.292;13.452;2024-01-30T05:15:25;13.43;;;5.23;;
21611;SDS011;47005;52.292;13.452;2024-01-30T05:17:51;9.10;;;4.90;;
21611;SDS011;47005;52.292;13.452;2024-01-30T05:20:16;11.70;;;5.03;;
21611;SDS011;47005;52.292;13.452;2024-01-30T05:22:42;14.90;;;5.83;;
21611;SDS011;47005;52.292;13.452;2024-01-30T05:25:10;9.23;;;5.70;;
21611;SDS011;47005;52.292;13.452;2024-01-30T05:27:37;14.23;;;5.77;;
21611;SDS011;47005;52.292;13.452;2024-01-30T05:30:02;8.00;;;5.20;;
21611;SDS011;47005;52.292;13.452;2024-01-30T05:32:29;13.43;;;5.40;;
21611;SDS011;47005;52.292;13.452;2024-01-30T05:34:55;8.67;;;4.93;;
21611;SDS011;47005;52.292;13.452;2024-01-30T05:37:20;11.90;;;5.27;;
21611;SDS011;47005;52.292;13.452;2024-01-30T05:39:46;9.00;;;5.37;;
21611;SDS011;47005;52.292;13.452;2024-01-30T05:42:11;11.00;;;5.87;;
21611;SDS011;47005;52.292;13.452;2024-01-30T05:44:37;8.53;;;5.40;;
21611;SDS011;47005;52.292;13.452;2024-01-30T05:47:03;10.50;;;5.33;;
21611;SDS011;47005;52.292;13.452;2024-01-30T05:49:29;7.50;;;4.93;;
21611;SDS011;47005;52.292;13.452;2024-01-30T05:51:55;12.27;;;5.33;;
21611;SDS011;47005;52.292;13.452;2024-01-30T05:54:20;10.93;;;4.50;;
21611;SDS011;47005;52.292;13.452;2024-01-30T05:56:46;8.87;;;5.20;;
21611;SDS011;47005;52.292;13.452;2024-01-30T05:59:12;13.27;;;5.60;;
21611;SDS011;47005;52.292;13.452;2024-01-30T06:01:37;10.50;;;5.07;;
21611;SDS011;47005;52.292;13.452;2024-01-30T06:04:03;9.50;;;4.97;;
21611;SDS011;47005;52.292;13.452;2024-01-30T06:06:28;10.63;;;6.40;;
21611;SDS011;47005;52.292;13.452;2024-01-30T06:08:54;10.83;;;5.27;;
21611;SDS011;47005;52.292;13.452;2024-01-30T06:11:21;11.97;;;6.07;;
21611;SDS011;47005;52.292;13.452;2024-01-30T06:13:46;13.70;;;7.77;;
21611;SDS011;47005;52.292;13.452;2024-01-30T06:16:12;17.20;;;6.37;;
21611;SDS011;47005;52.292;13.452;2024-01-30T06:18:38;11.57;;;7.07;;
21611;SDS011;47005;52.292;13.452;2024-01-30T06:21:04;16.47;;;6.60;;
21611;SDS011;47005;52.292;13.452;2024-01-30T06:23:30;17.93;;;6.80;;
21611;SDS011;47005;52.292;13.452;2024-01-30T06:25:55;13.03;;;6.03;;
21611;SDS011;47005;52.292;13.452;2024-01-30T06:28:21;11.83;;;6.63;;
21611;SDS011;47005;52.292;13.452;2024-01-30T06:30:47;7.97;;;5.23;;
21611;SDS011;47005;52.292;13.452;2024-01-30T06:33:12;10.33;;;6.63;;
21611;SDS011;47005;52.292;13.452;2024-01-30T06:35:40;8.33;;;5.00;;
21611;SDS011;47005;52.292;13.452;2024-01-30T06:38:07;8.77;;;5.80;;
21611;SDS011;47005;52.292;13.452;2024-01-30T06:40:32;9.47;;;6.27;;
21611;SDS011;47005;52.292;13.452;2024-01-30T06:42:58;20.20;;;6.77;;
21611;SDS011;47005;52.292;13.452;2024-01-30T06:45:23;10.87;;;6.23;;
21611;SDS011;47005;52.292;13.452;2024-01-30T06:47:49;15.63;;;7.90;;
21611;SDS011;47005;52.292;13.452;2024-01-30T06:50:15;18.63;;;7.10;;
21611;SDS011;47005;52.292;13.452;2024-01-30T06:52:40;15.07;;;7.57;;
21611;SDS011;47005;52.292;13.452;2024-01-30T06:55:06;12.93;;;5.87;;
21611;SDS011;47005;52.292;13.452;2024-01-30T06:57:32;12.27;;;6.03;;
21611;SDS011;47005;52.292;13.452;2024-01-30T06:59:58;13.57;;;6.17;;
21611;SDS011;47005;52.292;13.452;2024-01-30T07:02:23;15.53;;;6.67;;
21611;SDS011;47005;52.292;13.452;2024-01-30T07:04:49;10.73;;;6.50;;
21611;SDS011;47005;52.292;13.452;2024-01-30T07:07:15;13.87;;;5.83;;
21611;SDS011;47005;52.292;13.452;2024-01-30T07:09:41;15.33;;;6.83;;
21611;SDS011;47005;52.292;13.452;2024-01-30T07:12:06;12.67;;;7.13;;
21611;SDS011;47005;52.292;13.452;2024-01-30T07:14:32;13.70;;;5.93;;
21611;SDS011;47005;52.292;13.452;2024-01-30T07:16:58;9.77;;;4.77;;
21611;SDS011;47005;52.292;13.452;2024-01-30T07:19:24;9.67;;;6.20;;
21611;SDS011;47005;52.292;13.452;2024-01-30T07:21:49;13.20;;;6.43;;
21611;SDS011;47005;52.292;13.452;2024-01-30T07:24:15;15.00;;;6.67;;
21611;SDS011;47005;52.292;13.452;2024-01-30T07:26:41;14.13;;;5.97;;
21611;SDS011;47005;52.292;13.452;2024-01-30T07:29:06;8.73;;;5.73;;
21611;SDS011;47005;52.292;13.452;2024-01-30T07:31:32;14.17;;;6.47;;
21611;SDS011;47005;52.292;13.452;2024-01-30T07:33:57;14.57;;;7.27;;
21611;SDS011;47005;52.292;13.452;2024-01-30T07:36:23;14.60;;;5.50;;
21611;SDS011;47005;52.292;13.452;2024-01-30T07:38:49;9.83;;;5.70;;
21611;SDS011;47005;52.292;13.452;2024-01-30T07:41:14;9.40;;;6.07;;
21611;SDS011;47005;52.292;13.452;2024-01-30T07:43:40;12.57;;;6.27;;
21611;SDS011;47005;52.292;13.452;2024-01-30T07:46:06;11.90;;;6.13;;
21611;SDS011;47005;52.292;13.452;2024-01-30T07:48:34;13.13;;;7.00;;
21611;SDS011;47005;52.292;13.452;2024-01-30T07:51:00;9.53;;;6.40;;
21611;SDS011;47005;52.292;13.452;2024-01-30T07:53:25;11.13;;;6.30;;
21611;SDS011;47005;52.292;13.452;2024-01-30T07:55:51;11.97;;;6.93;;
21611;SDS011;47005;52.292;13.452;2024-01-30T07:58:17;18.90;;;7.77;;
21611;SDS011;47005;52.292;13.452;2024-01-30T08:00:44;9.97;;;5.73;;
21611;SDS011;47005;52.292;13.452;2024-01-30T08:03:10;14.83;;;5.40;;
21611;SDS011;47005;52.292;13.452;2024-01-30T08:05:35;11.17;;;5.57;;
21611;SDS011;47005;52.292;13.452;2024-01-30T08:08:01;14.70;;;6.33;;
21611;SDS011;47005;52.292;13.452;2024-01-30T08:10:27;9.23;;;6.00;;
21611;SDS011;47005;52.292;13.452;2024-01-30T08:12:52;10.10;;;6.03;;
21611;SDS011;47005;52.292;13.452;2024-01-30T08:15:18;13.47;;;6.37;;
21611;SDS011;47005;52.292;13.452;2024-01-30T08:17:44;11.23;;;6.73;;
21611;SDS011;47005;52.292;13.452;2024-01-30T08:20:10;17.13;;;7.00;;
21611;SDS011;47005;52.292;13.452;2024-01-30T08:22:38;13.40;;;6.63;;
21611;SDS011;47005;52.292;13.452;2024-01-30T08:25:05;11.50;;;6.90;;
21611;SDS011;47005;52.292;13.452;2024-01-30T08:27:31;10.63;;;6.87;;
21611;SDS011;47005;52.292;13.452;2024-01-30T08:29:56;9.57;;;5.20;;
21611;SDS011;47005;52.292;13.452;2024-01-30T08:32:22;12.37;;;7.07;;
21611;SDS011;47005;52.292;13.452;2024-01-30T08:34:49;10.30;;;6.20;;
21611;SDS011;47005;52.292;13.452;2024-01-30T08:37:14;11.80;;;6.20;;
21611;SDS011;47005;52.292;13.452;2024-01-30T08:39:41;10.30;;;5.60;;
21611;SDS011;47005;52.292;13.452;2024-01-30T08:42:08;11.70;;;6.60;;
21611;SDS011;47005;52.292;13.452;2024-01-30T08:44:33;12.67;;;7.10;;
21611;SDS011;47005;52.292;13.452;2024-01-30T08:46:59;16.37;;;7.53;;
21611;SDS011;47005;52.292;13.452;2024-01-30T08:49:25;10.33;;;5.87;;
21611;SDS011;47005;52.292;13.452;2024-01-30T08:51:50;12.83;;;6.20;;
21611;SDS011;47005;52.292;13.452;2024-01-30T08:54:16;14.33;;;6.80;;
21611;SDS011;47005;52.292;13.452;2024-01-30T08:56:42;9.80;;;5.57;;
21611;SDS011;47005;52.292;13.452;2024-01-30T08:59:08;11.33;;;6.27;;
21611;SDS011;47005;52.292;13.452;2024-01-30T09:01:33;11.40;;;6.47;;
21611;SDS011;47005;52.292;13.452;2024-01-30T09:03:59;13.10;;;5.63;;
21611;SDS011;47005;52.292;13.452;2024-01-30T09:06:25;16.30;;;7.03;;
21611;SDS011;47005;52.292;13.452;2024-01-30T09:08:53;9.67;;;4.77;;
21611;SDS011;47005;52.292;13.452;2024-01-30T09:11:18;14.87;;;6.50;;
21611;SDS011;47005;52.292;13.452;2024-01-30T09:13:44;10.17;;;5.13;;
21611;SDS011;47005;52.292;13.452;2024-01-30T09:16:10;8.70;;;4.63;;
21611;SDS011;47005;52.292;13.452;2024-01-30T09:18:35;8.03;;;5.30;;
21611;SDS011;47005;52.292;13.452;2024-01-30T09:21:01;8.10;;;4.50;;
21611;SDS011;47005;52.292;13.452;2024-01-30T09:23:27;10.77;;;5.17;;
21611;SDS011;47005;52.292;13.452;2024-01-30T09:25:53;12.47;;;5.37;;
21611;SDS011;47005;52.292;13.452;2024-01-30T09:28:19;9.33;;;4.40;;
21611;SDS011;47005;52.292;13.452;2024-01-30T09:30:44;6.70;;;3.50;;
21611;SDS011;47005;52.292;13.452;2024-01-30T09:33:10;8.47;;;4.53;;
21611;SDS011;47005;52.292;13.452;2024-01-30T09:35:36;7.93;;;4.20;;
21611;SDS011;47005;52.292;13.452;2024-01-30T09:38:02;8.20;;;4.43;;
21611;SDS011;47005;52.292;13.452;2024-01-30T09:40:28;9.40;;;4.63;;
21611;SDS011;47005;52.292;13.452;2024-01-30T09:42:53;8.23;;;5.07;;
21611;SDS011;47005;52.292;13.452;2024-01-30T09:45:20;9.87;;;4.93;;
21611;SDS011;47005;52.292;13.452;2024-01-30T09:47:49;8.40;;;5.23;;
21611;SDS011;47005;52.292;13.452;2024-01-30T09:50:16;10.77;;;4.40;;
21611;SDS011;47005;52.292;13.452;2024-01-30T09:52:45;8.97;;;4.17;;
21611;SDS011;47005;52.292;13.452;2024-01-30T09:55:11;9.10;;;5.00;;
21611;SDS011;47005;52.292;13.452;2024-01-30T09:57:38;8.67;;;5.03;;
21611;SDS011;47005;52.292;13.452;2024-01-30T10:00:04;6.97;;;3.93;;
21611;SDS011;47005;52.292;13.452;2024-01-30T10:02:33;11.27;;;4.63;;
21611;SDS011;47005;52.292;13.452;2024-01-30T10:05:02;11.00;;;4.40;;
21611;SDS011;47005;52.292;13.452;2024-01-30T10:07:28;7.43;;;4.00;;
21611;SDS011;47005;52.292;13.452;2024-01-30T10:09:54;9.47;;;4.30;;
21611;SDS011;47005;52.292;13.452;2024-01-30T10:12:21;7.20;;;3.87;;
21611;SDS011;47005;52.292;13.452;2024-01-30T10:14:47;9.67;;;4.47;;
21611;SDS011;47005;52.292;13.452;2024-01-30T10:17:13;9.93;;;4.50;;
21611;SDS011;47005;52.292;13.452;2024-01-30T10:19:39;8.77;;;3.87;;
21611;SDS011;47005;52.292;13.452;2024-01-30T10:22:06;8.47;;;4.13;;
21611;SDS011;47005;52.292;13.452;2024-01-30T10:24:33;8.50;;;3.90;;
21611;SDS011;47005;52.292;13.452;2024-01-30T10:26:59;7.60;;;3.83;;
21611;SDS011;47005;52.292;13.452;2024-01-30T10:29:25;8.37;;;4.27;;
21611;SDS011;47005;52.292;13.452;2024-01-30T10:32:01;6.93;;;4.03;;
21611;SDS011;47005;52.292;13.452;2024-01-30T10:34:28;7.87;;;4.37;;
21611;SDS011;47005;52.292;13.452;2024-01-30T10:39:29;8.33;;;4.47;;
21611;SDS011;47005;52.292;13.452;2024-01-30T10:41:59;7.20;;;3.93;;
21611;SDS011;47005;52.292;13.452;2024-01-30T10:44:30;7.57;;;3.23;;
21611;SDS011;47005;52.292;13.452;2024-01-30T10:47:03;7.70;;;3.73;;
21611;SDS011;47005;52.292;13.452;2024-01-30T10:49:36;7.30;;;4.33;;
21611;SDS011;47005;52.292;13.452;2024-01-30T10:52:03;7.27;;;3.90;;
21611;SDS011;47005;52.292;13.452;2024-01-30T10:54:30;9.97;;;5.10;;
21611;SDS011;47005;52.292;13.452;2024-01-30T10:56:58;8.47;;;3.83;;
21611;SDS011;47005;52.292;13.452;2024-01-30T10:59:28;8.40;;;4.63;;
21611;SDS011;47005;52.292;13.452;2024-01-30T11:01:56;7.70;;;4.53;;
21611;SDS011;47005;52.292;13.452;2024-01-30T11:04:25;8.83;;;4.83;;
21611;SDS011;47005;52.292;13.452;2024-01-30T11:06:51;8.37;;;4.67;;
21611;SDS011;47005;52.292;13.452;2024-01-30T11:09:17;11.07;;;3.97;;
21611;SDS011;47005;52.292;13.452;2024-01-30T11:11:50;9.60;;;4.13;;
21611;SDS011;47005;52.292;13.452;2024-01-30T11:14:26;7.47;;;4.67;;
21611;SDS011;47005;52.292;13.452;2024-01-30T11:16:56;9.13;;;4.97;;
21611;SDS011;47005;52.292;13.452;2024-01-30T11:19:23;7.07;;;4.67;;
21611;SDS011;47005;52.292;13.452;2024-01-30T11:21:52;11.27;;;4.50;;
21611;SDS011;47005;52.292;13.452;2024-01-30T11:24:20;7.30;;;4.00;;
21611;SDS011;47005;52.292;13.452;2024-01-30T11:26:49;8.97;;;5.23;;
21611;SDS011;47005;52.292;13.452;2024-01-30T11:29:20;9.50;;;4.90;;
21611;SDS011;47005;52.292;13.452;2024-01-30T11:31:53;9.83;;;4.23;;
21611;SDS011;47005;52.292;13.452;2024-01-30T11:34:22;7.20;;;4.67;;
21611;SDS011;47005;52.292;13.452;2024-01-30T11:36:52;11.50;;;5.03;;
21611;SDS011;47005;52.292;13.452;2024-01-30T11:39:23;9.20;;;5.83;;
21611;SDS011;47005;52.292;13.452;2024-01-30T11:41:53;9.17;;;4.77;;
21611;SDS011;47005;52.292;13.452;2024-01-30T11:44:19;11.97;;;5.60;;
21611;SDS011;47005;52.292;13.452;2024-01-30T11:46:49;14.73;;;6.37;;
21611;SDS011;47005;52.292;13.452;2024-01-30T11:49:18;8.23;;;5.23;;
21611;SDS011;47005;52.292;13.452;2024-01-30T11:51:46;7.97;;;4.83;;
21611;SDS011;47005;52.292;13.452;2024-01-30T11:54:14;8.53;;;5.03;;
21611;SDS011;47005;52.292;13.452;2024-01-30T11:56:41;8.33;;;5.33;;
21611;SDS011;47005;52.292;13.452;2024-01-30T11:59:08;11.30;;;5.77;;
21611;SDS011;47005;52.292;13.452;2024-01-30T12:01:33;8.30;;;5.40;;
21611;SDS011;47005;52.292;13.452;2024-01-30T12:03:59;9.67;;;4.90;;
21611;SDS011;47005;52.292;13.452;2024-01-30T12:06:25;14.13;;;5.90;;
21611;SDS011;47005;52.292;13.452;2024-01-30T12:08:58;11.17;;;6.47;;
21611;SDS011;47005;52.292;13.452;2024-01-30T12:11:25;11.20;;;5.27;;
21611;SDS011;47005;52.292;13.452;2024-01-30T12:13:55;9.10;;;5.53;;
21611;SDS011;47005;52.292;13.452;2024-01-30T12:16:21;9.13;;;5.33;;
21611;SDS011;47005;52.292;13.452;2024-01-30T12:18:47;8.90;;;5.07;;
21611;SDS011;47005;52.292;13.452;2024-01-30T12:21:16;8.87;;;5.37;;
21611;SDS011;47005;52.292;13.452;2024-01-30T12:23:42;15.33;;;6.03;;
21611;SDS011;47005;52.292;13.452;2024-01-30T12:26:08;8.23;;;5.40;;
21611;SDS011;47005;52.292;13.452;2024-01-30T12:28:35;10.17;;;5.17;;
21611;SDS011;47005;52.292;13.452;2024-01-30T12:31:04;10.13;;;5.33;;
21611;SDS011;47005;52.292;13.452;2024-01-30T12:33:30;8.17;;;4.90;;
21611;SDS011;47005;52.292;13.452;2024-01-30T12:35:56;9.50;;;5.00;;
21611;SDS011;47005;52.292;13.452;2024-01-30T12:38:24;8.60;;;5.17;;
21611;SDS011;47005;52.292;13.452;2024-01-30T12:40:58;13.33;;;5.10;;
21611;SDS011;47005;52.292;13.452;2024-01-30T12:43:24;8.63;;;5.23;;
21611;SDS011;47005;52.292;13.452;2024-01-30T12:45:50;11.87;;;4.93;;
21611;SDS011;47005;52.292;13.452;2024-01-30T12:48:17;9.00;;;5.57;;
21611;SDS011;47005;52.292;13.452;2024-01-30T12:50:43;8.23;;;5.00;;
21611;SDS011;47005;52.292;13.452;2024-01-30T12:53:08;8.57;;;5.10;;
21611;SDS011;47005;52.292;13.452;2024-01-30T12:55:34;7.73;;;4.93;;
21611;SDS011;47005;52.292;13.452;2024-01-30T12:58:00;9.57;;;5.47;;
21611;SDS011;47005;52.292;13.452;2024-01-30T13:00:26;9.87;;;5.97;;
21611;SDS011;47005;52.292;13.452;2024-01-30T13:02:52;7.90;;;5.27;;
21611;SDS011;47005;52.292;13.452;2024-01-30T13:05:18;7.93;;;4.50;;
21611;SDS011;47005;52.292;13.452;2024-01-30T13:07:43;8.97;;;5.33;;
21611;SDS011;47005;52.292;13.452;2024-01-30T13:10:09;8.83;;;4.60;;
21611;SDS011;47005;52.292;13.452;2024-01-30T13:12:35;10.57;;;6.23;;
21611;SDS011;47005;52.292;13.452;2024-01-30T13:15:02;11.10;;;5.47;;
21611;SDS011;47005;52.292;13.452;2024-01-30T13:17:29;13.23;;;5.07;;
21611;SDS011;47005;52.292;13.452;2024-01-30T13:19:55;11.43;;;5.83;;
21611;SDS011;47005;52.292;13.452;2024-01-30T13:22:21;9.73;;;5.33;;
21611;SDS011;47005;52.292;13.452;2024-01-30T13:24:47;7.57;;;5.30;;
21611;SDS011;47005;52.292;13.452;2024-01-30T13:27:13;10.10;;;6.10;;
21611;SDS011;47005;52.292;13.452;2024-01-30T13:29:38;10.80;;;6.20;;
21611;SDS011;47005;52.292;13.452;2024-01-30T13:32:04;10.17;;;5.37;;
21611;SDS011;47005;52.292;13.452;2024-01-30T13:34:30;10.90;;;5.70;;
21611;SDS011;47005;52.292;13.452;2024-01-30T13:37:02;7.87;;;5.40;;
21611;SDS011;47005;52.292;13.452;2024-01-30T13:39:28;10.73;;;5.47;;
21611;SDS011;47005;52.292;13.452;2024-01-30T13:41:54;9.97;;;5.13;;
21611;SDS011;47005;52.292;13.452;2024-01-30T13:44:19;8.30;;;5.10;;
21611;SDS011;47005;52.292;13.452;2024-01-30T13:46:46;10.53;;;5.43;;
21611;SDS011;47005;52.292;13.452;2024-01-30T13:49:11;11.30;;;4.73;;
21611;SDS011;47005;52.292;13.452;2024-01-30T13:51:37;8.80;;;4.63;;
21611;SDS011;47005;52.292;13.452;2024-01-30T13:54:03;7.87;;;5.40;;
21611;SDS011;47005;52.292;13.452;2024-01-30T13:56:28;9.43;;;5.40;;
21611;SDS011;47005;52.292;13.452;2024-01-30T13:58:55;11.80;;;5.23;;
21611;SDS011;47005;52.292;13.452;2024-01-30T14:01:21;8.30;;;5.57;;
21611;SDS011;47005;52.292;13.452;2024-01-30T14:03:47;8.57;;;5.83;;
21611;SDS011;47005;52.292;13.452;2024-01-30T14:06:13;8.27;;;5.10;;
21611;SDS011;47005;52.292;13.452;2024-01-30T14:08:39;12.63;;;5.93;;
21611;SDS011;47005;52.292;13.452;2024-01-30T14:11:04;10.40;;;5.57;;
21611;SDS011;47005;52.292;13.452;2024-01-30T14:13:30;8.53;;;5.43;;
21611;SDS011;47005;52.292;13.452;2024-01-30T14:15:57;10.70;;;5.27;;
21611;SDS011;47005;52.292;13.452;2024-01-30T14:18:23;10.47;;;5.77;;
21611;SDS011;47005;52.292;13.452;2024-01-30T14:20:50;14.27;;;6.00;;
21611;SDS011;47005;52.292;13.452;2024-01-30T14:23:17;8.87;;;5.70;;
21611;SDS011;47005;52.292;13.452;2024-01-30T14:25:43;8.43;;;5.20;;